createdAt,value
2023-03-31T00:00:14.861Z,81.22
2023-03-31T00:02:42.440Z,81.48
2023-03-31T00:05:10.837Z,81.63
2023-03-31T00:07:41.106Z,81.47
2023-03-31T00:12:45.456Z,81.59
2023-03-31T00:15:12.838Z,81.13
2023-03-31T00:17:40.201Z,81.24
2023-03-31T00:20:12.615Z,81.35
2023-03-31T00:22:42.575Z,81.32
2023-03-31T00:25:11.343Z,80.88
2023-03-31T00:27:42.375Z,81.19
2023-03-31T00:30:12.606Z,80.98
2023-03-31T00:32:40.146Z,80.91
2023-03-31T00:35:09.009Z,81.08
2023-03-31T00:37:36.334Z,81.08
2023-03-31T00:40:10.115Z,80.73
2023-03-31T00:42:41.229Z,80.91
2023-03-31T00:45:23.842Z,80.72
2023-03-31T00:47:55.346Z,81.44
2023-03-31T00:50:27.189Z,80.74
2023-03-31T00:52:58.103Z,80.85
2023-03-31T00:55:32.611Z,81.06
2023-03-31T00:58:02.176Z,81.04
2023-03-31T01:00:31.094Z,81.08
2023-03-31T01:03:02.376Z,81.13
2023-03-31T01:05:36.176Z,80.99
2023-03-31T01:08:06.018Z,80.81
2023-03-31T01:10:41.694Z,81.40
2023-03-31T01:13:10.965Z,81.51
2023-03-31T01:15:40.472Z,81.43
2023-03-31T01:18:11.043Z,80.97
2023-03-31T01:20:57.672Z,81.33
2023-03-31T01:23:53.072Z,80.91
2023-03-31T01:26:50.082Z,81.19
2023-03-31T01:29:48.119Z,81.47
2023-03-31T01:32:50.910Z,80.91
2023-03-31T01:35:38.000Z,80.83
2023-03-31T01:38:31.527Z,81.34
2023-03-31T01:41:17.146Z,80.82
2023-03-31T01:43:54.623Z,81.08
2023-03-31T01:46:29.191Z,81.03
2023-03-31T01:49:09.528Z,81.01
2023-03-31T01:51:44.875Z,80.67
2023-03-31T01:54:19.719Z,80.85
2023-03-31T01:56:52.686Z,81.09
2023-03-31T01:59:27.208Z,81.16
2023-03-31T02:01:59.615Z,81.14
2023-03-31T02:04:31.748Z,81.02
2023-03-31T02:07:04.105Z,80.60
2023-03-31T02:09:35.002Z,81.05
2023-03-31T02:12:08.770Z,81.06
2023-03-31T02:14:40.045Z,81.12
2023-03-31T02:17:14.458Z,81.47
2023-03-31T02:19:46.558Z,80.80
2023-03-31T02:22:16.566Z,80.99
2023-03-31T02:24:46.296Z,80.88
2023-03-31T02:27:21.229Z,81.15
2023-03-31T02:29:49.117Z,81.45
2023-03-31T02:32:22.597Z,81.34
2023-03-31T02:34:50.179Z,81.04
2023-03-31T02:37:17.700Z,81.27
2023-03-31T02:39:49.028Z,81.38
2023-03-31T02:42:18.413Z,81.33
2023-03-31T02:44:46.060Z,81.60
2023-03-31T02:47:16.430Z,80.96
2023-03-31T02:49:48.787Z,81.42
2023-03-31T02:52:45.624Z,81.41
2023-03-31T02:55:28.248Z,81.19
2023-03-31T02:58:26.960Z,81.72
2023-03-31T03:01:11.630Z,81.42
2023-03-31T03:03:50.449Z,81.54
2023-03-31T03:06:28.038Z,81.57
2023-03-31T03:09:17.259Z,81.64
2023-03-31T03:11:52.152Z,81.70
2023-03-31T03:14:32.326Z,81.27
2023-03-31T03:17:04.095Z,81.38
2023-03-31T03:19:31.551Z,81.76
2023-03-31T03:21:59.116Z,81.36
2023-03-31T03:24:29.819Z,81.23
2023-03-31T03:26:57.885Z,81.98
2023-03-31T03:29:27.371Z,81.42
2023-03-31T03:31:54.880Z,81.48
2023-03-31T03:34:22.235Z,81.78
2023-03-31T03:36:49.607Z,81.94
2023-03-31T03:39:16.956Z,81.79
2023-03-31T03:41:44.245Z,81.82
2023-03-31T03:44:11.626Z,81.62
2023-03-31T03:46:40.722Z,81.26
2023-03-31T03:49:08.012Z,81.87
2023-03-31T03:51:35.825Z,81.20
2023-03-31T03:54:03.492Z,81.73
2023-03-31T03:56:31.322Z,81.80
2023-03-31T03:58:58.683Z,81.98
2023-03-31T04:01:26.209Z,81.78
2023-03-31T04:03:55.005Z,82.09
2023-03-31T04:06:22.597Z,81.51
2023-03-31T04:08:49.840Z,81.44
2023-03-31T04:11:19.372Z,81.36
2023-03-31T04:13:47.511Z,81.98
2023-03-31T04:16:16.941Z,82.08
2023-03-31T04:18:48.901Z,81.80
2023-03-31T04:21:23.186Z,81.81
2023-03-31T04:23:58.773Z,81.72
2023-03-31T04:26:31.115Z,82.39
2023-03-31T04:29:00.413Z,81.96
2023-03-31T04:31:31.035Z,81.74
2023-03-31T04:34:02.670Z,81.76
2023-03-31T04:36:32.020Z,81.63
2023-03-31T04:39:00.040Z,81.95
2023-03-31T04:41:30.093Z,82.23
2023-03-31T04:43:57.495Z,82.25
2023-03-31T04:46:25.728Z,82.29
2023-03-31T04:48:53.111Z,82.43
2023-03-31T04:51:20.550Z,81.87
2023-03-31T04:53:49.713Z,82.09
2023-03-31T04:56:17.184Z,81.87
2023-03-31T04:58:44.838Z,82.31
2023-03-31T05:01:13.938Z,81.90
2023-03-31T05:03:41.566Z,82.15
2023-03-31T05:06:09.181Z,82.41
2023-03-31T05:08:37.409Z,82.15
2023-03-31T05:11:06.912Z,81.82
2023-03-31T05:13:34.170Z,81.84
2023-03-31T05:16:07.055Z,82.30
2023-03-31T05:18:34.436Z,82.24
2023-03-31T05:21:13.219Z,82.49
2023-03-31T05:23:40.738Z,81.98
2023-03-31T05:26:09.790Z,81.95
2023-03-31T05:28:38.025Z,82.69
2023-03-31T05:31:06.958Z,82.66
2023-03-31T05:33:35.071Z,82.23
2023-03-31T05:36:02.472Z,82.38
2023-03-31T05:38:31.639Z,82.58
2023-03-31T05:40:59.186Z,82.56
2023-03-31T05:43:27.979Z,82.24
2023-03-31T05:45:55.425Z,82.45
2023-03-31T05:48:22.791Z,82.10
2023-03-31T05:50:50.717Z,82.22
2023-03-31T05:53:18.016Z,82.04
2023-03-31T05:55:45.832Z,82.20
2023-03-31T05:58:13.000Z,82.11
2023-03-31T06:00:41.834Z,82.07
2023-03-31T06:03:09.184Z,81.92
2023-03-31T06:05:36.515Z,81.96
2023-03-31T06:08:04.414Z,81.83
2023-03-31T06:10:31.812Z,81.37
2023-03-31T06:12:59.082Z,82.08
2023-03-31T06:15:26.505Z,81.62
2023-03-31T06:17:55.393Z,81.50
2023-03-31T06:20:28.242Z,81.54
2023-03-31T06:22:56.168Z,81.36
2023-03-31T06:25:23.683Z,81.22
2023-03-31T06:27:52.030Z,81.54
2023-03-31T06:30:19.422Z,81.46
2023-03-31T06:32:47.076Z,81.26
2023-03-31T06:35:16.060Z,81.49
2023-03-31T06:37:43.302Z,81.25
2023-03-31T06:40:11.438Z,81.23
2023-03-31T06:42:39.611Z,81.24
2023-03-31T06:45:07.919Z,81.02
2023-03-31T06:47:35.262Z,80.79
2023-03-31T06:50:02.819Z,80.91
2023-03-31T06:52:31.899Z,80.98
2023-03-31T06:55:00.675Z,80.49
2023-03-31T06:57:28.613Z,80.58
2023-03-31T06:59:55.999Z,80.44
2023-03-31T07:02:23.429Z,80.19
2023-03-31T07:04:50.780Z,80.35
2023-03-31T07:07:18.497Z,80.34
2023-03-31T07:09:47.264Z,80.29
2023-03-31T07:12:14.651Z,80.30
2023-03-31T07:14:42.946Z,80.56
2023-03-31T07:17:11.789Z,80.43
2023-03-31T07:19:42.325Z,80.52
2023-03-31T07:22:09.782Z,80.56
2023-03-31T07:24:37.136Z,80.45
2023-03-31T07:27:05.916Z,79.80
2023-03-31T07:29:33.297Z,80.21
2023-03-31T07:32:00.640Z,80.03
2023-03-31T07:34:28.038Z,79.97
2023-03-31T07:36:55.987Z,79.95
2023-03-31T07:39:23.357Z,79.76
2023-03-31T07:41:50.775Z,80.05
2023-03-31T07:44:20.505Z,79.51
2023-03-31T07:46:47.776Z,79.68
2023-03-31T07:49:16.249Z,79.91
2023-03-31T07:51:43.560Z,79.80
2023-03-31T07:54:10.828Z,79.30
2023-03-31T07:56:38.427Z,79.80
2023-03-31T07:59:05.836Z,78.97
2023-03-31T08:01:35.007Z,79.34
2023-03-31T08:04:02.580Z,79.05
2023-03-31T08:06:30.563Z,79.11
2023-03-31T08:08:58.371Z,79.34
2023-03-31T08:11:26.193Z,79.40
2023-03-31T08:13:54.136Z,79.04
2023-03-31T08:16:21.665Z,79.24
2023-03-31T08:18:50.416Z,78.95
2023-03-31T08:21:17.966Z,78.95
2023-03-31T08:23:45.384Z,78.61
2023-03-31T08:26:17.349Z,78.58
2023-03-31T08:28:46.086Z,78.99
2023-03-31T08:31:16.535Z,78.66
2023-03-31T08:33:44.386Z,78.18
2023-03-31T08:36:13.751Z,78.52
2023-03-31T08:38:43.059Z,78.44
2023-03-31T08:41:23.295Z,78.36
2023-03-31T08:43:51.013Z,77.70
2023-03-31T08:46:19.697Z,77.91
2023-03-31T08:48:50.307Z,78.46
2023-03-31T08:51:22.879Z,77.87
2023-03-31T08:53:55.760Z,78.07
2023-03-31T08:56:24.565Z,77.92
2023-03-31T08:58:52.807Z,77.86
2023-03-31T09:01:37.972Z,77.65
2023-03-31T09:04:26.075Z,78.32
2023-03-31T09:07:02.733Z,78.03
2023-03-31T09:09:44.447Z,77.73
2023-03-31T09:12:20.608Z,77.89
2023-03-31T09:14:55.025Z,77.70
2023-03-31T09:17:26.711Z,78.07
2023-03-31T09:19:59.064Z,78.26
2023-03-31T09:22:31.733Z,77.83
2023-03-31T09:25:01.476Z,77.44
2023-03-31T09:27:32.631Z,77.93
2023-03-31T09:30:05.821Z,77.44
2023-03-31T09:32:33.966Z,78.00
2023-03-31T09:35:14.473Z,77.67
2023-03-31T09:37:43.104Z,77.99
2023-03-31T09:40:16.655Z,78.03
2023-03-31T09:42:44.907Z,77.43
2023-03-31T09:45:16.186Z,78.26
2023-03-31T09:47:45.978Z,77.78
2023-03-31T09:50:14.548Z,78.08
2023-03-31T09:52:46.422Z,77.66
2023-03-31T09:55:32.126Z,77.90
2023-03-31T09:58:07.457Z,77.98
2023-03-31T10:00:35.692Z,77.78
2023-03-31T10:03:07.878Z,77.47
2023-03-31T10:05:37.924Z,77.57
2023-03-31T10:08:26.548Z,77.21
2023-03-31T10:10:56.278Z,77.67
2023-03-31T10:13:25.596Z,77.94
2023-03-31T10:15:54.795Z,77.38
2023-03-31T10:18:33.420Z,77.80
2023-03-31T10:21:03.091Z,77.04
2023-03-31T10:23:34.135Z,77.07
2023-03-31T10:26:03.937Z,77.84
2023-03-31T10:28:34.793Z,77.27
2023-03-31T10:31:03.656Z,77.92
2023-03-31T10:33:35.000Z,77.48
2023-03-31T10:36:08.801Z,77.70
2023-03-31T10:38:42.809Z,77.34
2023-03-31T10:41:10.895Z,77.03
2023-03-31T10:43:41.831Z,77.75
2023-03-31T10:46:10.234Z,76.82
2023-03-31T10:48:40.016Z,77.08
2023-03-31T10:51:18.558Z,76.97
2023-03-31T10:53:48.813Z,77.04
2023-03-31T10:56:32.208Z,77.90
2023-03-31T10:59:21.468Z,77.63
2023-03-31T11:02:01.924Z,77.55
2023-03-31T11:05:01.017Z,77.79
2023-03-31T11:07:50.418Z,77.76
2023-03-31T11:10:35.082Z,77.46
2023-03-31T11:13:13.712Z,78.36
2023-03-31T11:15:46.152Z,78.18
2023-03-31T11:18:32.038Z,78.42
2023-03-31T11:21:10.714Z,78.61
2023-03-31T11:23:43.137Z,78.50
2023-03-31T11:26:20.204Z,78.99
2023-03-31T11:29:04.086Z,78.64
2023-03-31T11:31:38.746Z,78.39
2023-03-31T11:34:20.551Z,78.96
2023-03-31T11:37:13.396Z,78.84
2023-03-31T11:39:57.390Z,79.44
2023-03-31T11:42:29.172Z,78.36
2023-03-31T11:45:03.926Z,79.48
2023-03-31T11:47:37.439Z,78.76
2023-03-31T11:50:11.523Z,79.33
2023-03-31T11:52:43.671Z,79.58
2023-03-31T11:55:16.889Z,79.46
2023-03-31T11:57:50.876Z,78.99
2023-03-31T12:00:21.392Z,79.41
2023-03-31T12:02:53.073Z,79.62
2023-03-31T12:05:22.466Z,79.83
2023-03-31T12:07:57.437Z,79.81
2023-03-31T12:10:35.668Z,80.10
2023-03-31T12:13:16.294Z,79.57
2023-03-31T12:15:51.569Z,79.73
2023-03-31T12:18:23.502Z,79.36
2023-03-31T12:20:54.131Z,79.62
2023-03-31T12:23:25.138Z,79.97
2023-03-31T12:26:02.225Z,80.53
2023-03-31T12:28:33.857Z,80.09
2023-03-31T12:31:03.434Z,80.33
2023-03-31T12:33:33.302Z,80.46
2023-03-31T12:36:23.727Z,80.13
2023-03-31T12:38:59.168Z,80.35
2023-03-31T12:41:37.996Z,80.39
2023-03-31T12:44:36.300Z,80.90
2023-03-31T12:47:33.807Z,80.48
2023-03-31T12:50:27.550Z,80.21
2023-03-31T12:53:05.804Z,80.65
2023-03-31T12:55:37.589Z,80.77
2023-03-31T12:58:42.401Z,80.84
2023-03-31T13:01:16.687Z,81.13
2023-03-31T13:03:50.801Z,80.97
2023-03-31T13:07:00.015Z,80.78
2023-03-31T13:09:47.638Z,80.65
2023-03-31T13:12:18.122Z,81.22
2023-03-31T13:14:47.705Z,80.98
2023-03-31T13:17:24.234Z,81.47
2023-03-31T13:19:52.594Z,81.49
2023-03-31T13:22:34.872Z,81.47
2023-03-31T13:25:33.412Z,82.21
2023-03-31T13:28:11.715Z,82.05
2023-03-31T13:30:51.676Z,81.64
2023-03-31T13:33:28.756Z,82.20
2023-03-31T13:36:13.835Z,81.81
2023-03-31T13:38:50.680Z,81.96
2023-03-31T13:41:46.408Z,82.71
2023-03-31T13:44:33.790Z,82.01
2023-03-31T13:47:28.319Z,82.19
2023-03-31T13:50:13.211Z,81.78
2023-03-31T13:52:47.549Z,82.15
2023-03-31T13:55:52.988Z,82.54
2023-03-31T13:58:43.318Z,82.29
2023-03-31T14:01:43.528Z,82.03
2023-03-31T14:04:40.532Z,82.31
2023-03-31T14:07:13.560Z,81.96
2023-03-31T14:09:49.540Z,82.40
2023-03-31T14:12:22.091Z,82.66
2023-03-31T14:14:53.649Z,82.22
2023-03-31T14:17:22.024Z,81.88
2023-03-31T14:20:21.383Z,82.36
2023-03-31T14:22:57.207Z,81.73
2023-03-31T14:25:37.853Z,82.45
2023-03-31T14:28:18.714Z,82.39
2023-03-31T14:30:54.788Z,82.30
2023-03-31T14:33:39.801Z,82.93
2023-03-31T14:36:16.030Z,82.30
2023-03-31T14:38:45.743Z,82.91
2023-03-31T14:41:20.317Z,82.63
2023-03-31T14:43:51.098Z,82.65
2023-03-31T14:46:21.886Z,82.52
2023-03-31T14:48:51.328Z,83.08
2023-03-31T14:51:25.105Z,83.01
2023-03-31T14:53:58.016Z,82.87
2023-03-31T14:56:33.915Z,83.07
2023-03-31T14:59:02.746Z,83.08
2023-03-31T15:01:35.887Z,83.72
2023-03-31T15:04:08.255Z,83.29
2023-03-31T15:06:35.865Z,83.48
2023-03-31T15:09:04.659Z,83.49
2023-03-31T15:11:32.761Z,83.94
2023-03-31T15:14:04.893Z,83.94
2023-03-31T15:16:38.101Z,83.69
2023-03-31T15:19:12.747Z,84.10
2023-03-31T15:21:40.593Z,83.99
2023-03-31T15:24:12.617Z,84.02
2023-03-31T15:26:45.491Z,84.07
2023-03-31T15:29:19.253Z,83.88
2023-03-31T15:31:47.059Z,84.18
2023-03-31T15:34:23.583Z,84.61
2023-03-31T15:36:53.549Z,84.61
2023-03-31T15:39:23.567Z,84.30
2023-03-31T15:41:55.165Z,84.08
2023-03-31T15:44:36.771Z,84.40
2023-03-31T15:47:13.105Z,84.45
2023-03-31T15:49:50.264Z,84.18
2023-03-31T15:52:22.708Z,84.58
2023-03-31T15:54:52.322Z,84.39
2023-03-31T15:57:19.908Z,84.76
2023-03-31T15:59:55.492Z,84.17
2023-03-31T16:02:26.635Z,84.26
2023-03-31T16:04:57.945Z,84.57
2023-03-31T16:07:28.815Z,84.67
2023-03-31T16:10:00.932Z,84.67
2023-03-31T16:12:31.953Z,84.74
2023-03-31T16:15:03.158Z,84.74
2023-03-31T16:17:34.716Z,84.54
2023-03-31T16:20:07.581Z,84.63
2023-03-31T16:22:39.829Z,85.23
2023-03-31T16:25:15.555Z,85.30
2023-03-31T16:27:46.913Z,85.23
2023-03-31T16:30:16.797Z,84.77
2023-03-31T16:33:00.972Z,85.67
2023-03-31T16:35:34.226Z,85.34
2023-03-31T16:38:04.336Z,85.48
2023-03-31T16:40:36.609Z,85.78
2023-03-31T16:43:12.123Z,85.52
2023-03-31T16:45:39.737Z,85.70
2023-03-31T16:48:15.635Z,85.70
2023-03-31T16:50:44.290Z,85.71
2023-03-31T16:53:13.133Z,85.63
2023-03-31T16:55:42.434Z,85.81
2023-03-31T16:58:09.894Z,85.79
2023-03-31T17:00:37.520Z,86.02
2023-03-31T17:03:07.812Z,86.11
2023-03-31T17:05:38.575Z,86.28
2023-03-31T17:08:06.704Z,86.40
2023-03-31T17:10:34.099Z,86.33
2023-03-31T17:13:03.087Z,86.40
2023-03-31T17:15:30.669Z,86.09
2023-03-31T17:17:59.426Z,86.40
2023-03-31T17:20:26.941Z,86.58
2023-03-31T17:22:54.461Z,86.84
2023-03-31T17:25:22.159Z,86.71
2023-03-31T17:27:49.511Z,86.58
2023-03-31T17:30:18.259Z,86.41
2023-03-31T17:32:45.734Z,86.86
2023-03-31T17:35:20.546Z,86.45
2023-03-31T17:37:50.543Z,86.74
2023-03-31T17:40:18.162Z,86.50
2023-03-31T17:42:47.294Z,86.89
2023-03-31T17:45:14.852Z,86.89
2023-03-31T17:47:45.233Z,86.59
2023-03-31T17:50:15.013Z,87.15
2023-03-31T17:52:42.527Z,86.79
2023-03-31T17:55:10.520Z,87.38
2023-03-31T17:57:40.450Z,86.73
2023-03-31T18:00:10.224Z,86.99
2023-03-31T18:02:37.991Z,87.12
2023-03-31T18:05:08.517Z,87.35
2023-03-31T18:07:36.726Z,87.16
2023-03-31T18:10:05.483Z,86.99
2023-03-31T18:12:33.367Z,87.01
2023-03-31T18:15:01.816Z,87.39
2023-03-31T18:17:31.536Z,87.44
2023-03-31T18:19:59.444Z,87.90
2023-03-31T18:22:28.928Z,87.79
2023-03-31T18:24:56.668Z,87.69
2023-03-31T18:27:25.178Z,87.41
2023-03-31T18:29:52.573Z,87.54
2023-03-31T18:32:20.380Z,87.75
2023-03-31T18:34:48.499Z,88.03
2023-03-31T18:37:15.751Z,87.93
2023-03-31T18:39:44.562Z,88.01
2023-03-31T18:42:12.241Z,88.24
2023-03-31T18:44:39.939Z,88.35
2023-03-31T18:47:07.406Z,87.84
2023-03-31T18:49:34.910Z,88.13
2023-03-31T18:52:04.504Z,88.48
2023-03-31T18:54:32.368Z,88.30
2023-03-31T18:57:03.340Z,88.14
2023-03-31T18:59:30.590Z,88.28
2023-03-31T19:01:57.984Z,88.35
2023-03-31T19:04:25.590Z,88.36
2023-03-31T19:06:53.499Z,88.34
2023-03-31T19:09:22.961Z,88.48
2023-03-31T19:11:50.160Z,88.34
2023-03-31T19:14:19.010Z,88.57
2023-03-31T19:16:46.867Z,88.79
2023-03-31T19:19:14.146Z,89.48
2023-03-31T19:21:42.827Z,88.92
2023-03-31T19:24:10.242Z,88.94
2023-03-31T19:26:37.606Z,88.62
2023-03-31T19:29:05.543Z,88.43
2023-03-31T19:31:41.448Z,89.05
2023-03-31T19:34:11.723Z,88.82
2023-03-31T19:36:39.050Z,88.82
2023-03-31T19:39:07.436Z,88.84
2023-03-31T19:41:35.191Z,88.81
2023-03-31T19:44:02.928Z,88.94
2023-03-31T19:46:30.895Z,89.07
2023-03-31T19:49:00.112Z,89.08
2023-03-31T19:51:27.768Z,88.69
2023-03-31T19:53:55.217Z,89.23
2023-03-31T19:56:25.344Z,88.85
2023-03-31T19:58:52.611Z,89.42
2023-03-31T20:01:22.876Z,89.15
2023-03-31T20:03:53.531Z,89.09
2023-03-31T20:06:24.544Z,89.15
2023-03-31T20:08:53.089Z,89.21
2023-03-31T20:11:22.397Z,89.30
2023-03-31T20:13:49.791Z,89.35
2023-03-31T20:16:19.211Z,89.37
2023-03-31T20:18:51.317Z,89.34
2023-03-31T20:21:20.866Z,89.75
2023-03-31T20:23:49.629Z,89.69
2023-03-31T20:26:19.349Z,90.04
2023-03-31T20:28:47.728Z,89.70
2023-03-31T20:31:17.854Z,90.12
2023-03-31T20:33:46.316Z,90.01
2023-03-31T20:36:15.703Z,89.65
2023-03-31T20:38:46.450Z,90.14
2023-03-31T20:41:15.860Z,90.45
2023-03-31T20:43:43.188Z,90.10
2023-03-31T20:46:11.037Z,90.13
2023-03-31T20:48:40.709Z,90.39
2023-03-31T20:51:09.752Z,90.77
2023-03-31T20:53:47.010Z,90.51
2023-03-31T20:56:17.590Z,90.81
2023-03-31T20:58:45.280Z,90.61
2023-03-31T21:01:14.206Z,90.54
2023-03-31T21:03:42.461Z,90.94
2023-03-31T21:06:12.154Z,91.16
2023-03-31T21:08:40.898Z,91.40
2023-03-31T21:11:08.546Z,91.44
2023-03-31T21:13:37.418Z,91.46
2023-03-31T21:16:05.791Z,91.66
2023-03-31T21:18:34.978Z,91.40
2023-03-31T21:21:04.299Z,91.48
2023-03-31T21:23:31.922Z,91.07
2023-03-31T21:26:01.207Z,91.83
2023-03-31T21:28:30.349Z,91.66
2023-03-31T21:31:03.266Z,91.50
2023-03-31T21:33:31.790Z,91.42
2023-03-31T21:35:59.591Z,91.74
2023-03-31T21:38:30.553Z,91.66
2023-03-31T21:40:57.803Z,91.24
2023-03-31T21:43:26.119Z,91.95
2023-03-31T21:45:59.615Z,92.12
2023-03-31T21:48:27.145Z,91.89
2023-03-31T21:50:55.276Z,91.81
2023-03-31T21:53:23.282Z,91.90
2023-03-31T21:55:52.837Z,91.48
2023-03-31T21:58:20.051Z,91.55
2023-03-31T22:00:47.707Z,91.56
2023-03-31T22:03:26.995Z,91.79
2023-03-31T22:05:55.586Z,92.21
2023-03-31T22:08:23.093Z,91.71
2023-03-31T22:10:52.229Z,91.94
2023-03-31T22:13:20.630Z,91.55
2023-03-31T22:15:48.777Z,92.30
2023-03-31T22:18:18.066Z,91.72
2023-03-31T22:20:46.358Z,92.13
2023-03-31T22:23:13.752Z,92.40
2023-03-31T22:25:41.388Z,92.17
2023-03-31T22:28:09.252Z,92.38
2023-03-31T22:30:37.109Z,92.36
2023-03-31T22:33:04.603Z,92.30
2023-03-31T22:35:33.671Z,92.26
2023-03-31T22:38:01.719Z,92.24
2023-03-31T22:40:30.231Z,92.01
2023-03-31T22:42:58.549Z,92.46
2023-03-31T22:45:25.933Z,92.57
2023-03-31T22:47:53.230Z,92.19
2023-03-31T22:50:21.214Z,92.43
2023-03-31T22:52:50.200Z,92.10
2023-03-31T22:55:18.037Z,92.28
2023-03-31T22:57:46.043Z,92.21
2023-03-31T23:00:14.454Z,91.92
2023-03-31T23:02:42.352Z,92.29
2023-03-31T23:05:10.153Z,91.87
2023-03-31T23:07:38.044Z,92.35
2023-03-31T23:10:08.271Z,92.38
2023-03-31T23:12:35.533Z,92.63
2023-03-31T23:15:03.100Z,92.37
2023-03-31T23:17:31.508Z,92.40
2023-03-31T23:19:58.946Z,92.33
2023-03-31T23:22:26.616Z,92.42
2023-03-31T23:24:54.070Z,92.56
2023-03-31T23:27:23.560Z,92.64
2023-03-31T23:29:51.314Z,92.42
2023-03-31T23:32:18.624Z,92.70
2023-03-31T23:34:45.973Z,92.51
2023-03-31T23:37:14.373Z,92.47
2023-03-31T23:39:41.989Z,92.68
2023-03-31T23:42:10.702Z,92.52
2023-03-31T23:44:39.617Z,92.75
2023-03-31T23:47:07.020Z,92.67
2023-03-31T23:49:34.373Z,92.45
2023-03-31T23:52:01.564Z,92.38
2023-03-31T23:54:29.273Z,92.52
2023-03-31T23:56:57.138Z,93.24
2023-03-31T23:59:24.466Z,92.61
